createdAt,value
2022-09-28T00:01:14.533Z,98515.07
2022-09-28T00:03:45.967Z,98515.15
2022-09-28T00:06:18.854Z,98510.46
2022-09-28T00:08:50.851Z,98507.73
2022-09-28T00:11:23.571Z,98512.48
2022-09-28T00:13:57.892Z,98515.35
2022-09-28T00:16:31.615Z,98516.91
2022-09-28T00:19:03.079Z,98519.83
2022-09-28T00:21:35.834Z,98517.35
2022-09-28T00:24:16.089Z,98515.47
2022-09-28T00:26:52.717Z,98511.02
2022-09-28T00:29:26.666Z,98511.29
2022-09-28T00:32:00.628Z,98509.48
2022-09-28T00:34:34.621Z,98507.71
2022-09-28T00:37:08.873Z,98507.30
2022-09-28T00:39:41.635Z,98510.96
2022-09-28T00:42:18.581Z,98514.52
2022-09-28T00:44:53.203Z,98518.05
2022-09-28T00:47:43.788Z,98519.70
2022-09-28T00:50:20.927Z,98523.23
2022-09-28T00:52:55.519Z,98523.29
2022-09-28T00:55:32.837Z,98526.21
2022-09-28T00:58:06.850Z,98525.99
2022-09-28T01:00:40.756Z,98523.44
2022-09-28T01:03:13.799Z,98528.87
2022-09-28T01:05:46.369Z,98527.07
2022-09-28T01:08:21.222Z,98527.62
2022-09-28T01:10:52.949Z,98526.77
2022-09-28T01:13:25.570Z,98526.34
2022-09-28T01:16:08.348Z,98525.10
2022-09-28T01:18:48.846Z,98519.65
2022-09-28T01:21:22.507Z,98517.69
2022-09-28T01:24:23.448Z,98516.38
2022-09-28T01:27:15.388Z,98509.73
2022-09-28T01:29:53.588Z,98515.26
2022-09-28T01:32:37.771Z,98512.04
2022-09-28T01:35:15.072Z,98507.17
2022-09-28T01:37:53.091Z,98505.02
2022-09-28T01:40:27.750Z,98501.92
2022-09-28T01:43:03.547Z,98499.89
2022-09-28T01:45:43.451Z,98503.52
2022-09-28T01:48:18.832Z,98502.86
2022-09-28T01:50:53.713Z,98502.05
2022-09-28T01:53:30.066Z,98500.94
2022-09-28T01:56:09.857Z,98498.06
2022-09-28T01:58:44.878Z,98496.45
2022-09-28T02:01:19.361Z,98491.85
2022-09-28T02:03:54.880Z,98493.90
2022-09-28T02:06:32.037Z,98496.21
2022-09-28T02:09:10.168Z,98497.75
2022-09-28T02:11:51.604Z,98493.75
2022-09-28T02:14:24.274Z,98500.10
2022-09-28T02:16:57.678Z,98499.86
2022-09-28T02:19:33.614Z,98504.98
2022-09-28T02:22:13.148Z,98509.52
2022-09-28T02:24:51.879Z,98513.91
2022-09-28T02:27:35.535Z,98511.73
2022-09-28T02:30:08.715Z,98507.47
2022-09-28T02:32:43.630Z,98508.02
2022-09-28T02:35:18.070Z,98506.66
2022-09-28T02:37:50.573Z,98506.75
2022-09-28T02:40:25.299Z,98503.90
2022-09-28T02:43:03.225Z,98507.55
2022-09-28T02:45:49.929Z,98507.40
2022-09-28T02:48:43.711Z,98502.44
2022-09-28T02:51:28.476Z,98498.65
2022-09-28T02:54:29.848Z,98498.80
2022-09-28T02:57:14.675Z,98502.04
2022-09-28T02:59:55.026Z,98501.19
2022-09-28T03:02:33.007Z,98499.14
2022-09-28T03:05:20.764Z,98502.20
2022-09-28T03:07:59.595Z,98503.89
2022-09-28T03:10:38.528Z,98500.70
2022-09-28T03:13:10.334Z,98501.64
2022-09-28T03:15:46.451Z,98501.70
2022-09-28T03:18:19.528Z,98498.46
2022-09-28T03:20:50.686Z,98503.17
2022-09-28T03:23:25.437Z,98502.13
2022-09-28T03:25:55.130Z,98498.71
2022-09-28T03:28:26.580Z,98500.30
2022-09-28T03:30:57.615Z,98500.38
2022-09-28T03:33:28.633Z,98500.09
2022-09-28T03:35:59.556Z,98502.30
2022-09-28T03:38:30.574Z,98502.45
2022-09-28T03:41:02.385Z,98502.89
2022-09-28T03:43:37.876Z,98504.90
2022-09-28T03:46:09.229Z,98502.59
2022-09-28T03:48:42.806Z,98502.92
2022-09-28T03:51:15.020Z,98502.42
2022-09-28T03:53:45.975Z,98503.15
2022-09-28T03:56:18.489Z,98498.49
2022-09-28T03:58:50.013Z,98498.77
2022-09-28T04:01:20.929Z,98498.80
2022-09-28T04:03:56.266Z,98503.41
2022-09-28T04:06:28.106Z,98504.05
2022-09-28T04:08:59.593Z,98502.27
2022-09-28T04:11:47.623Z,98506.34
2022-09-28T04:14:21.950Z,98505.95
2022-09-28T04:16:55.005Z,98507.95
2022-09-28T04:19:32.576Z,98507.06
2022-09-28T04:22:29.771Z,98509.08
2022-09-28T04:25:00.858Z,98513.09
2022-09-28T04:27:53.147Z,98517.57
2022-09-28T04:30:24.786Z,98517.87
2022-09-28T04:32:56.759Z,98512.98
2022-09-28T04:35:28.111Z,98507.08
2022-09-28T04:37:59.076Z,98503.57
2022-09-28T04:40:31.144Z,98504.25
2022-09-28T04:43:02.298Z,98500.57
2022-09-28T04:45:35.809Z,98504.91
2022-09-28T04:48:12.165Z,98504.60
2022-09-28T04:51:03.350Z,98507.34
2022-09-28T04:53:35.176Z,98511.62
2022-09-28T04:56:09.023Z,98513.63
2022-09-28T04:58:42.242Z,98510.27
2022-09-28T05:01:17.699Z,98505.39
2022-09-28T05:04:04.138Z,98504.24
2022-09-28T05:06:44.067Z,98510.30
2022-09-28T05:09:16.632Z,98512.38
2022-09-28T05:11:50.119Z,98512.59
2022-09-28T05:14:23.059Z,98514.15
2022-09-28T05:16:55.250Z,98515.02
2022-09-28T05:19:26.188Z,98514.17
2022-09-28T05:22:00.547Z,98515.38
2022-09-28T05:24:31.445Z,98515.05
2022-09-28T05:27:03.756Z,98513.06
2022-09-28T05:29:34.663Z,98516.16
2022-09-28T05:32:23.917Z,98520.70
2022-09-28T05:35:07.300Z,98529.83
2022-09-28T05:37:45.422Z,98532.75
2022-09-28T05:40:16.456Z,98528.66
2022-09-28T05:42:47.545Z,98528.17
2022-09-28T05:45:18.573Z,98525.93
2022-09-28T05:47:51.068Z,98528.61
2022-09-28T05:50:25.059Z,98529.08
2022-09-28T05:53:03.179Z,98531.81
2022-09-28T05:55:34.512Z,98535.35
2022-09-28T05:58:07.668Z,98535.96
2022-09-28T06:00:39.013Z,98540.89
2022-09-28T06:03:12.798Z,98542.21
2022-09-28T06:05:43.819Z,98548.17
2022-09-28T06:08:14.946Z,98548.29
2022-09-28T06:10:49.669Z,98549.46
2022-09-28T06:13:20.823Z,98550.54
2022-09-28T06:15:51.824Z,98550.92
2022-09-28T06:18:23.510Z,98555.36
2022-09-28T06:21:28.028Z,98552.02
2022-09-28T06:24:01.485Z,98551.16
2022-09-28T06:26:32.683Z,98551.64
2022-09-28T06:29:03.673Z,98553.14
2022-09-28T06:31:34.678Z,98555.77
2022-09-28T06:34:05.642Z,98555.18
2022-09-28T06:36:36.555Z,98555.85
2022-09-28T06:39:08.101Z,98559.10
2022-09-28T06:41:40.129Z,98557.87
2022-09-28T06:44:18.346Z,98554.39
2022-09-28T06:47:08.349Z,98552.98
2022-09-28T06:49:56.901Z,98556.89
2022-09-28T06:52:55.546Z,98557.07
2022-09-28T06:55:49.144Z,98556.85
2022-09-28T06:58:22.586Z,98558.05
2022-09-28T07:00:56.200Z,98557.94
2022-09-28T07:03:27.527Z,98560.95
2022-09-28T07:06:01.553Z,98565.95
2022-09-28T07:09:01.621Z,98569.66
2022-09-28T07:12:04.925Z,98578.16
2022-09-28T07:14:48.321Z,98581.88
2022-09-28T07:17:20.133Z,98582.95
2022-09-28T07:19:53.169Z,98583.92
2022-09-28T07:22:39.430Z,98586.08
2022-09-28T07:25:14.407Z,98584.80
2022-09-28T07:28:05.180Z,98586.19
2022-09-28T07:30:59.440Z,98586.45
2022-09-28T07:33:56.554Z,98585.73
2022-09-28T07:36:35.463Z,98581.71
2022-09-28T07:39:07.405Z,98583.27
2022-09-28T07:41:39.870Z,98582.48
2022-09-28T07:44:13.938Z,98584.22
2022-09-28T07:46:45.398Z,98587.69
2022-09-28T07:49:24.977Z,98589.63
2022-09-28T07:52:18.823Z,98590.59
2022-09-28T07:55:10.453Z,98599.27
2022-09-28T07:58:01.896Z,98597.59
2022-09-28T08:00:48.562Z,98599.52
2022-09-28T08:03:22.451Z,98600.52
2022-09-28T08:05:54.287Z,98597.95
2022-09-28T08:08:25.285Z,98600.01
2022-09-28T08:10:56.896Z,98605.77
2022-09-28T08:13:46.802Z,98608.93
2022-09-28T08:19:18.560Z,98608.13
2022-09-28T08:21:51.102Z,98606.26
2022-09-28T08:24:24.767Z,98606.92
2022-09-28T08:26:57.313Z,98611.52
2022-09-28T08:29:31.981Z,98611.91
2022-09-28T08:32:21.658Z,98613.84
2022-09-28T08:35:22.386Z,98614.45
2022-09-28T08:38:13.266Z,98616.03
2022-09-28T08:41:16.826Z,98614.96
2022-09-28T08:44:33.472Z,98613.45
2022-09-28T08:47:44.217Z,98610.98
2022-09-28T08:50:51.260Z,98608.08
2022-09-28T08:53:41.933Z,98610.27
2022-09-28T08:56:29.213Z,98608.41
2022-09-28T08:59:04.649Z,98610.15
2022-09-28T09:01:41.886Z,98617.42
2022-09-28T09:04:21.344Z,98615.20
2022-09-28T09:07:26.858Z,98614.52
2022-09-28T09:10:21.040Z,98615.47
2022-09-28T09:13:04.361Z,98611.55
2022-09-28T09:15:51.781Z,98614.51
2022-09-28T09:18:45.637Z,98611.98
2022-09-28T09:21:48.864Z,98610.77
2022-09-28T09:24:28.405Z,98611.27
2022-09-28T09:27:17.803Z,98615.39
2022-09-28T09:30:05.061Z,98612.95
2022-09-28T09:32:57.849Z,98614.02
2022-09-28T09:36:02.518Z,98614.23
2022-09-28T09:39:04.338Z,98617.52
2022-09-28T09:42:08.545Z,98620.38
2022-09-28T09:45:26.146Z,98622.09
2022-09-28T09:48:22.319Z,98624.38
2022-09-28T09:50:58.561Z,98625.36
2022-09-28T09:53:38.511Z,98628.05
2022-09-28T09:56:17.644Z,98628.54
2022-09-28T09:59:13.010Z,98624.91
2022-09-28T10:02:21.740Z,98629.88
2022-09-28T10:05:02.712Z,98637.02
2022-09-28T10:07:44.588Z,98635.90
2022-09-28T10:10:22.982Z,98638.62
2022-09-28T10:12:57.690Z,98641.52
2022-09-28T10:15:30.667Z,98642.92
2022-09-28T10:18:21.646Z,98640.62
2022-09-28T10:21:16.203Z,98643.48
2022-09-28T10:24:02.882Z,98644.98
2022-09-28T10:26:38.773Z,98640.28
2022-09-28T10:29:17.975Z,98643.64
2022-09-28T10:31:50.764Z,98643.70
2022-09-28T10:34:36.868Z,98646.05
2022-09-28T10:37:13.106Z,98649.59
2022-09-28T10:40:03.602Z,98649.34
2022-09-28T10:42:38.279Z,98652.48
2022-09-28T10:45:23.569Z,98646.18
2022-09-28T10:48:02.014Z,98652.70
2022-09-28T10:50:34.484Z,98653.00
2022-09-28T10:53:21.601Z,98649.83
2022-09-28T10:56:23.188Z,98651.45
2022-09-28T10:59:26.223Z,98649.55
2022-09-28T11:02:00.323Z,98649.36
2022-09-28T11:04:41.665Z,98648.44
2022-09-28T11:07:20.799Z,98645.75
2022-09-28T11:09:55.011Z,98647.38
2022-09-28T11:12:28.396Z,98646.80
2022-09-28T11:15:03.021Z,98639.97
2022-09-28T11:17:39.836Z,98636.50
2022-09-28T11:20:31.128Z,98634.70
2022-09-28T11:23:20.686Z,98631.36
2022-09-28T11:26:07.111Z,98638.11
2022-09-28T11:28:42.187Z,98636.34
2022-09-28T11:31:31.301Z,98634.74
2022-09-28T11:34:31.107Z,98634.19
2022-09-28T11:37:36.649Z,98635.40
2022-09-28T11:40:25.130Z,98634.27
2022-09-28T11:43:12.325Z,98633.67
2022-09-28T11:45:56.294Z,98637.97
2022-09-28T11:48:40.126Z,98635.98
2022-09-28T11:51:18.079Z,98636.70
2022-09-28T11:53:56.308Z,98639.41
2022-09-28T11:56:37.228Z,98643.98
2022-09-28T11:59:15.470Z,98644.40
2022-09-28T12:01:54.564Z,98643.15
2022-09-28T12:04:53.587Z,98648.66
2022-09-28T12:07:54.910Z,98649.77
2022-09-28T12:11:21.156Z,98651.64
2022-09-28T12:14:22.672Z,98659.05
2022-09-28T12:17:06.869Z,98660.52
2022-09-28T12:19:40.989Z,98658.17
2022-09-28T12:22:33.359Z,98660.44
2022-09-28T12:25:07.897Z,98660.08
2022-09-28T12:27:49.145Z,98658.11
2022-09-28T12:30:23.027Z,98662.17
2022-09-28T12:33:00.382Z,98663.44
2022-09-28T12:35:46.115Z,98660.87
2022-09-28T12:38:35.937Z,98662.01
2022-09-28T12:41:17.537Z,98663.52
2022-09-28T12:44:10.944Z,98657.59
2022-09-28T12:46:59.774Z,98657.05
2022-09-28T12:50:37.138Z,98653.05
2022-09-28T12:56:48.225Z,98648.54
2022-09-28T13:00:04.813Z,98652.00
2022-09-28T13:02:52.138Z,98653.55
2022-09-28T13:05:43.088Z,98654.23
2022-09-28T13:08:20.755Z,98649.98
2022-09-28T13:11:07.916Z,98646.52
2022-09-28T13:13:53.107Z,98649.22
2022-09-28T13:16:31.611Z,98648.77
2022-09-28T13:19:10.258Z,98645.02
2022-09-28T13:21:47.572Z,98641.81
2022-09-28T13:24:32.547Z,98636.09
2022-09-28T13:27:15.566Z,98633.44
2022-09-28T13:30:06.645Z,98631.41
2022-09-28T13:32:39.393Z,98630.99
2022-09-28T13:35:19.466Z,98630.72
2022-09-28T13:38:10.809Z,98629.13
2022-09-28T13:41:17.031Z,98631.55
2022-09-28T13:44:13.174Z,98628.80
2022-09-28T13:46:51.986Z,98632.81
2022-09-28T13:49:32.676Z,98631.83
2022-09-28T13:52:11.353Z,98630.05
2022-09-28T13:54:57.859Z,98627.10
2022-09-28T13:57:35.864Z,98629.39
2022-09-28T14:00:18.967Z,98631.88
2022-09-28T14:02:58.917Z,98631.20
2022-09-28T14:05:47.005Z,98627.20
2022-09-28T14:08:38.627Z,98625.36
2022-09-28T14:11:57.966Z,98624.94
2022-09-28T14:14:45.883Z,98625.95
2022-09-28T14:17:51.342Z,98625.80
2022-09-28T14:20:27.400Z,98624.30
2022-09-28T14:23:28.491Z,98622.91
2022-09-28T14:26:29.033Z,98626.57
2022-09-28T14:29:13.061Z,98628.84
2022-09-28T14:31:45.677Z,98624.16
2022-09-28T14:34:38.472Z,98624.55
2022-09-28T14:37:40.060Z,98622.65
2022-09-28T14:40:40.227Z,98628.23
2022-09-28T14:43:28.700Z,98627.40
2022-09-28T14:46:31.307Z,98629.83
2022-09-28T14:49:04.103Z,98628.77
2022-09-28T14:52:04.833Z,98627.10
2022-09-28T14:54:57.023Z,98628.08
2022-09-28T14:57:32.627Z,98625.40
2022-09-28T15:00:17.496Z,98627.30
2022-09-28T15:02:52.802Z,98631.49
2022-09-28T15:05:33.531Z,98635.70
2022-09-28T15:08:07.706Z,98636.80
2022-09-28T15:10:42.162Z,98637.89
2022-09-28T15:13:22.258Z,98640.70
2022-09-28T15:15:56.867Z,98637.59
2022-09-28T15:18:52.061Z,98640.09
2022-09-28T15:21:24.452Z,98642.45
2022-09-28T15:23:55.403Z,98645.45
2022-09-28T15:26:31.179Z,98649.80
2022-09-28T15:29:04.165Z,98646.89
2022-09-28T15:31:38.402Z,98647.94
2022-09-28T15:34:47.528Z,98645.03
2022-09-28T15:37:22.774Z,98642.30
2022-09-28T15:39:56.121Z,98634.98
2022-09-28T15:42:27.960Z,98623.77
2022-09-28T15:45:28.799Z,98626.21
2022-09-28T15:48:21.267Z,98635.20
2022-09-28T15:51:10.495Z,98635.39
2022-09-28T15:53:50.155Z,98627.39
2022-09-28T15:56:21.393Z,98616.59
2022-09-28T15:59:12.164Z,98620.24
2022-09-28T16:01:44.131Z,98626.39
2022-09-28T16:04:39.766Z,98634.13
2022-09-28T16:07:39.684Z,98633.88
2022-09-28T16:10:37.759Z,98636.14
2022-09-28T16:13:20.242Z,98637.82
2022-09-28T16:16:00.030Z,98641.08
2022-09-28T16:18:32.524Z,98639.30
2022-09-28T16:21:31.717Z,98636.09
2022-09-28T16:24:03.406Z,98631.58
2022-09-28T16:26:39.100Z,98622.16
2022-09-28T16:29:25.844Z,98612.64
2022-09-28T16:31:56.881Z,98609.98
2022-09-28T16:34:30.878Z,98614.50
2022-09-28T16:37:38.272Z,98616.38
2022-09-28T16:40:11.539Z,98619.85
2022-09-28T16:42:48.923Z,98623.01
2022-09-28T16:45:32.472Z,98619.98
2022-09-28T16:48:06.072Z,98617.86
2022-09-28T16:51:15.907Z,98608.00
2022-09-28T16:54:05.551Z,98608.58
2022-09-28T16:56:39.184Z,98609.86
2022-09-28T16:59:13.966Z,98617.15
2022-09-28T17:01:49.413Z,98629.23
2022-09-28T17:04:20.538Z,98634.08
2022-09-28T17:07:18.059Z,98633.02
2022-09-28T17:10:06.110Z,98619.37
2022-09-28T17:12:42.553Z,98613.60
2022-09-28T17:15:19.756Z,98613.54
2022-09-28T17:17:51.305Z,98610.54
2022-09-28T17:20:26.386Z,98608.61
2022-09-28T17:22:58.165Z,98603.10
2022-09-28T17:25:30.220Z,98604.31
2022-09-28T17:28:01.928Z,98602.81
2022-09-28T17:30:33.243Z,98604.27
2022-09-28T17:33:05.708Z,98602.10
2022-09-28T17:35:39.729Z,98605.77
2022-09-28T17:38:12.794Z,98605.20
2022-09-28T17:40:45.585Z,98612.17
2022-09-28T17:43:16.692Z,98615.02
2022-09-28T17:45:55.416Z,98617.73
2022-09-28T17:48:51.178Z,98627.48
2022-09-28T17:51:26.414Z,98634.09
2022-09-28T17:53:57.050Z,98637.27
2022-09-28T17:56:32.087Z,98638.29
2022-09-28T17:59:12.342Z,98639.07
2022-09-28T18:02:03.316Z,98637.45
2022-09-28T18:04:51.159Z,98634.04
2022-09-28T18:07:22.986Z,98645.67
2022-09-28T18:09:58.428Z,98652.48
2022-09-28T18:12:32.190Z,98654.75
2022-09-28T18:15:03.443Z,98663.46
2022-09-28T18:17:52.747Z,98669.47
2022-09-28T18:20:43.651Z,98673.62
2022-09-28T18:23:14.774Z,98680.27
2022-09-28T18:25:46.777Z,98685.78
2022-09-28T18:28:48.448Z,98692.17
2022-09-28T18:32:07.269Z,98697.31
2022-09-28T18:34:40.676Z,98699.90
2022-09-28T18:37:14.434Z,98701.81
2022-09-28T18:40:33.069Z,98710.23
2022-09-28T18:43:05.494Z,98715.61
2022-09-28T18:45:38.264Z,98716.77
2022-09-28T18:48:44.378Z,98714.72
2022-09-28T18:51:37.396Z,98721.31
2022-09-28T18:54:08.467Z,98723.11
2022-09-28T18:56:42.124Z,98731.80
2022-09-28T18:59:14.371Z,98731.58
2022-09-28T19:01:51.645Z,98734.58
2022-09-28T19:04:22.924Z,98735.15
2022-09-28T19:06:54.532Z,98734.20
2022-09-28T19:09:26.619Z,98733.89
2022-09-28T19:11:57.840Z,98735.00
2022-09-28T19:14:29.035Z,98727.90
2022-09-28T19:17:00.342Z,98726.30
2022-09-28T19:19:31.841Z,98721.05
2022-09-28T19:22:02.971Z,98717.20
2022-09-28T19:24:34.543Z,98709.92
2022-09-28T19:27:06.009Z,98702.73
2022-09-28T19:29:37.961Z,98698.05
2022-09-28T19:32:09.039Z,98694.27
2022-09-28T19:34:40.182Z,98678.10
2022-09-28T19:37:11.703Z,98674.37
2022-09-28T19:39:43.157Z,98683.29
2022-09-28T19:42:14.214Z,98678.45
2022-09-28T19:44:46.504Z,98675.09
2022-09-28T19:47:21.687Z,98680.45
2022-09-28T19:49:52.963Z,98678.44
2022-09-28T19:52:24.332Z,98675.05
2022-09-28T19:54:56.918Z,98670.64
2022-09-28T19:57:30.572Z,98668.48
2022-09-28T20:00:03.529Z,98665.81
2022-09-28T20:02:38.003Z,98670.27
2022-09-28T20:05:10.107Z,98669.79
2022-09-28T20:07:41.334Z,98673.55
2022-09-28T20:10:13.151Z,98675.13
2022-09-28T20:12:44.422Z,98676.42
2022-09-28T20:15:16.673Z,98679.96
2022-09-28T20:17:47.823Z,98685.95
2022-09-28T20:20:19.293Z,98682.52
2022-09-28T20:22:50.887Z,98683.01
2022-09-28T20:25:21.984Z,98685.86
2022-09-28T20:27:53.238Z,98685.07
2022-09-28T20:30:24.451Z,98692.84
2022-09-28T20:32:55.487Z,98686.42
2022-09-28T20:35:32.931Z,98683.06
2022-09-28T20:38:09.190Z,98680.54
2022-09-28T20:40:41.236Z,98680.31
2022-09-28T20:43:13.456Z,98675.13
2022-09-28T20:45:45.388Z,98673.72
2022-09-28T20:48:17.045Z,98671.00
2022-09-28T20:50:48.353Z,98670.72
2022-09-28T20:53:19.561Z,98671.59
2022-09-28T20:55:58.033Z,98669.70
2022-09-28T20:58:29.800Z,98672.36
2022-09-28T21:01:09.299Z,98677.29
2022-09-28T21:03:41.233Z,98677.08
2022-09-28T21:06:13.498Z,98678.39
2022-09-28T21:08:45.984Z,98678.29
2022-09-28T21:11:18.561Z,98681.96
2022-09-28T21:13:53.083Z,98681.04
2022-09-28T21:16:24.470Z,98682.06
2022-09-28T21:18:55.515Z,98681.23
2022-09-28T21:21:27.259Z,98686.97
2022-09-28T21:23:59.219Z,98686.09
2022-09-28T21:26:31.943Z,98686.00
2022-09-28T21:29:05.135Z,98685.09
2022-09-28T21:31:41.710Z,98683.82
2022-09-28T21:34:15.287Z,98684.37
2022-09-28T21:36:46.993Z,98686.67
2022-09-28T21:39:18.801Z,98682.36
2022-09-28T21:41:49.819Z,98680.23
2022-09-28T21:44:21.123Z,98675.15
2022-09-28T21:46:52.446Z,98677.29
2022-09-28T21:49:23.579Z,98678.61
2022-09-28T21:51:54.829Z,98682.55
2022-09-28T21:54:25.922Z,98690.57
2022-09-28T21:56:56.938Z,98699.07
2022-09-28T21:59:28.195Z,98693.66
2022-09-28T22:01:59.271Z,98696.83
2022-09-28T22:04:30.536Z,98694.16
2022-09-28T22:07:01.633Z,98693.27
2022-09-28T22:09:32.802Z,98702.13
2022-09-28T22:12:12.631Z,98708.56
2022-09-28T22:14:43.727Z,98709.70
2022-09-28T22:17:14.909Z,98707.98
2022-09-28T22:19:45.916Z,98709.80
2022-09-28T22:22:17.148Z,98719.52
2022-09-28T22:24:48.252Z,98724.90
2022-09-28T22:27:19.604Z,98729.38
2022-09-28T22:29:51.226Z,98730.88
2022-09-28T22:32:23.932Z,98728.79
2022-09-28T22:34:55.780Z,98725.78
2022-09-28T22:37:28.172Z,98723.85
2022-09-28T22:40:00.911Z,98722.38
2022-09-28T22:42:32.754Z,98722.11
2022-09-28T22:45:04.080Z,98724.73
2022-09-28T22:47:35.255Z,98720.88
2022-09-28T22:50:08.311Z,98720.27
2022-09-28T22:52:39.724Z,98727.10
2022-09-28T22:55:12.918Z,98725.58
2022-09-28T22:57:47.674Z,98727.73
2022-09-28T23:00:19.395Z,98733.78
2022-09-28T23:02:50.516Z,98727.08
2022-09-28T23:05:21.482Z,98728.02
2022-09-28T23:07:52.544Z,98725.37
2022-09-28T23:10:24.430Z,98727.70
2022-09-28T23:12:57.653Z,98724.74
2022-09-28T23:15:29.895Z,98727.33
2022-09-28T23:18:00.830Z,98721.84
2022-09-28T23:20:32.133Z,98725.39
2022-09-28T23:23:03.640Z,98726.77
2022-09-28T23:25:34.642Z,98736.04
2022-09-28T23:28:05.762Z,98745.18
2022-09-28T23:30:36.884Z,98745.20
2022-09-28T23:33:08.519Z,98741.46
2022-09-28T23:35:39.608Z,98733.65
2022-09-28T23:38:13.820Z,98729.77
2022-09-28T23:40:45.788Z,98738.94
2022-09-28T23:43:16.988Z,98746.55
2022-09-28T23:45:47.976Z,98749.86
2022-09-28T23:48:19.269Z,98756.22
2022-09-28T23:50:50.800Z,98763.95
2022-09-28T23:56:43.368Z,98763.29
2022-09-28T23:59:16.706Z,98762.71
